Terminal Aerodrome Forecast
Issued by NWS Bismarck, ND

Home | Current Version | Previous Version | Graphics & Text | Print | Product List | Glossary On
Versions: 1 2 3 4 5 6 7 8 9 10 11 12 13 14 15 16 17
000
FTUS43 KBIS 212331
TAFBIS
TAF
KBIS 212331Z 2200/2224 34012G20KT P6SM SCT140
     FM220100 35008KT P6SM SCT150
     FM220300 04004KT P6SM SCT200
     FM221400 01008KT P6SM BKN110
     FM221700 36012G20KT P6SM BKN070=

USA.gov is the U.S. government's official web portal to all federal, state and local government web resources and services.